createdAt,value
2019-03-23T01:13:27.535Z,4.00
2019-03-23T01:14:27.528Z,4.00
2019-03-23T01:15:27.565Z,4.00
2019-03-23T01:16:27.507Z,4.00
2019-03-23T01:17:27.495Z,4.00
2019-03-23T01:18:27.484Z,4.00
2019-03-23T01:19:27.477Z,8.00
2019-03-23T01:20:27.464Z,8.00
2019-03-23T01:21:27.502Z,8.00
2019-03-23T01:22:27.447Z,12.00
2019-03-23T01:23:27.430Z,8.00
2019-03-23T01:24:27.422Z,12.00
2019-03-23T01:25:27.410Z,16.00
2019-03-23T01:26:27.401Z,16.00
2019-03-23T01:27:27.490Z,20.00
2019-03-23T01:28:27.379Z,24.00
2019-03-23T01:29:27.365Z,24.00
2019-03-23T01:30:27.358Z,24.00
2019-03-23T01:31:27.348Z,32.00
2019-03-23T01:32:27.336Z,32.00
2019-03-23T01:33:27.378Z,36.00
2019-03-23T01:34:27.318Z,44.00
2019-03-23T01:35:27.310Z,44.00
2019-03-23T01:36:27.290Z,52.00
2019-03-23T01:37:27.312Z,56.00
2019-03-23T01:38:27.273Z,60.00
2019-03-23T01:39:27.313Z,68.00
2019-03-23T01:40:27.255Z,72.00
2019-03-23T01:41:27.247Z,76.00
2019-03-23T01:42:27.228Z,84.00
2019-03-23T01:43:27.219Z,92.00
2019-03-23T01:44:27.214Z,100.00
2019-03-23T01:45:27.252Z,104.00
2019-03-23T01:46:27.191Z,112.00
2019-03-23T01:47:27.180Z,120.00
2019-03-23T01:48:27.170Z,128.00
2019-03-23T01:49:27.163Z,144.00
2019-03-23T01:50:27.148Z,152.00
2019-03-23T01:51:27.188Z,160.00
2019-03-23T01:52:27.124Z,164.00
2019-03-23T01:53:27.117Z,168.00
2019-03-23T01:54:27.101Z,172.00
2019-03-23T01:55:27.094Z,168.00
2019-03-23T01:56:27.086Z,168.00
2019-03-23T01:57:27.124Z,168.00
2019-03-23T01:58:27.063Z,172.00
2019-03-23T01:59:27.053Z,168.00
2019-03-23T02:00:27.040Z,168.00
2019-03-23T02:01:27.031Z,172.00
2019-03-23T02:02:27.025Z,180.00
2019-03-23T02:03:27.110Z,192.00
2019-03-23T02:04:27.005Z,196.00
2019-03-23T02:05:26.989Z,200.00
2019-03-23T02:06:26.979Z,204.00
2019-03-23T02:07:26.968Z,208.00
2019-03-23T02:08:26.957Z,216.00
2019-03-23T02:09:26.993Z,228.00
2019-03-23T02:10:26.936Z,236.00
2019-03-23T02:11:26.924Z,244.00
2019-03-23T02:12:26.916Z,252.00
2019-03-23T02:13:26.916Z,252.00
2019-03-23T02:14:26.893Z,256.00
2019-03-23T02:15:26.981Z,264.00
2019-03-23T02:16:26.872Z,268.00
2019-03-23T02:17:26.860Z,280.00
2019-03-23T02:18:26.851Z,296.00
2019-03-23T02:19:26.841Z,320.00
2019-03-23T02:20:26.831Z,344.00
2019-03-23T02:21:27.174Z,360.00
2019-03-23T02:22:26.804Z,356.00
2019-03-23T02:23:26.798Z,340.00
2019-03-23T02:24:26.792Z,320.00
2019-03-23T02:25:26.777Z,300.00
2019-03-23T02:26:26.766Z,284.00
2019-03-23T02:27:26.854Z,272.00
2019-03-23T02:28:26.740Z,272.00
2019-03-23T02:29:26.736Z,280.00
2019-03-23T02:30:26.723Z,304.00
2019-03-23T02:31:26.713Z,344.00
2019-03-23T02:32:26.705Z,392.00
2019-03-23T02:33:26.792Z,444.00
2019-03-23T02:34:26.679Z,476.00
2019-03-23T02:35:26.675Z,504.00
2019-03-23T02:36:26.662Z,536.00
2019-03-23T02:37:28.072Z,568.00
2019-03-23T02:38:26.646Z,604.00
2019-03-23T02:39:26.826Z,636.00
2019-03-23T02:40:26.620Z,660.00
2019-03-23T02:41:26.609Z,680.00
2019-03-23T02:42:26.598Z,692.00
2019-03-23T02:43:26.586Z,708.00
2019-03-23T02:44:26.610Z,724.00
2019-03-23T02:45:26.699Z,744.00
2019-03-23T02:46:26.556Z,756.00
2019-03-23T02:47:26.547Z,772.00
2019-03-23T02:48:26.587Z,784.00
2019-03-23T02:49:26.529Z,796.00
2019-03-23T02:50:26.513Z,800.00
2019-03-23T02:51:26.557Z,800.00
2019-03-23T02:52:26.490Z,800.00
2019-03-23T02:53:26.481Z,812.00
2019-03-23T02:54:26.475Z,832.00
2019-03-23T02:55:26.456Z,868.00
2019-03-23T02:56:26.456Z,904.00
2019-03-23T02:57:26.642Z,932.00
2019-03-23T02:58:26.432Z,964.00
2019-03-23T02:59:26.418Z,1000.00
2019-03-23T03:00:27.724Z,1036.00
2019-03-23T03:01:26.402Z,1052.00
2019-03-23T03:02:26.389Z,1056.00
2019-03-23T03:03:26.426Z,1056.00
2019-03-23T03:04:26.369Z,1056.00
2019-03-23T03:05:26.418Z,1068.00
2019-03-23T03:06:26.346Z,1100.00
2019-03-23T03:07:26.335Z,1152.00
2019-03-23T03:08:26.325Z,1204.00
2019-03-23T03:09:26.373Z,1256.00
2019-03-23T03:10:26.302Z,1292.00
2019-03-23T03:11:26.290Z,1308.00
2019-03-23T03:12:26.280Z,1328.00
2019-03-23T03:13:26.277Z,1356.00
2019-03-23T03:14:26.260Z,1404.00
2019-03-23T03:15:26.455Z,1480.00
2019-03-23T03:16:26.237Z,1560.00
2019-03-23T03:17:26.228Z,1592.00
2019-03-23T03:18:26.224Z,1576.00
2019-03-23T03:19:26.209Z,1592.00
2019-03-23T03:20:26.195Z,1660.00
2019-03-23T03:21:26.242Z,1728.00
2019-03-23T03:22:26.176Z,1768.00
2019-03-23T03:23:26.162Z,1764.00
2019-03-23T03:24:26.152Z,1704.00
2019-03-23T03:25:26.151Z,1604.00
2019-03-23T03:26:26.143Z,1516.00
2019-03-23T03:27:26.227Z,1456.00
2019-03-23T03:28:26.119Z,1400.00
2019-03-23T03:29:26.102Z,1340.00
2019-03-23T03:30:26.094Z,1276.00
2019-03-23T03:31:26.081Z,1224.00
2019-03-23T03:32:26.078Z,1188.00
2019-03-23T03:33:26.216Z,1184.00
2019-03-23T03:34:26.070Z,1204.00
2019-03-23T03:35:26.041Z,1240.00
2019-03-23T03:36:26.039Z,1276.00
2019-03-23T03:37:26.018Z,1300.00
2019-03-23T03:38:26.009Z,1324.00
2019-03-23T03:39:26.045Z,1360.00
2019-03-23T03:40:25.990Z,1416.00
2019-03-23T03:41:25.975Z,1476.00
2019-03-23T03:42:25.969Z,1504.00
2019-03-23T03:43:25.954Z,1472.00
2019-03-23T03:44:25.943Z,1420.00
2019-03-23T03:45:25.986Z,1372.00
2019-03-23T03:46:25.922Z,1332.00
2019-03-23T03:47:25.908Z,1284.00
2019-03-23T03:48:25.900Z,1232.00
2019-03-23T03:49:25.891Z,1176.00
2019-03-23T03:50:25.886Z,1112.00
2019-03-23T03:51:26.019Z,1072.00
2019-03-23T03:52:25.858Z,1048.00
2019-03-23T03:53:25.843Z,1032.00
2019-03-23T03:54:25.865Z,988.00
2019-03-23T03:55:25.825Z,948.00
2019-03-23T03:56:25.820Z,900.00
2019-03-23T03:57:25.908Z,856.00
2019-03-23T03:58:25.798Z,824.00
2019-03-23T03:59:25.785Z,792.00
2019-03-23T04:00:25.775Z,760.00
2019-03-23T04:01:25.770Z,732.00
2019-03-23T04:02:25.748Z,708.00
2019-03-23T04:03:25.850Z,696.00
2019-03-23T04:04:25.726Z,700.00
2019-03-23T04:05:25.719Z,716.00
2019-03-23T04:06:25.704Z,748.00
2019-03-23T04:07:25.698Z,784.00
2019-03-23T04:08:25.689Z,816.00
2019-03-23T04:09:25.824Z,860.00
2019-03-23T04:10:25.665Z,884.00
2019-03-23T04:11:25.653Z,912.00
2019-03-23T04:12:25.644Z,920.00
2019-03-23T04:13:25.640Z,924.00
2019-03-23T04:14:25.623Z,932.00
2019-03-23T04:15:25.681Z,932.00
2019-03-23T04:16:25.602Z,928.00
2019-03-23T04:17:25.592Z,904.00
2019-03-23T04:18:25.581Z,888.00
2019-03-23T04:19:25.610Z,876.00
2019-03-23T04:20:25.561Z,864.00
2019-03-23T04:21:25.651Z,868.00
2019-03-23T04:22:25.539Z,868.00
2019-03-23T04:23:25.526Z,856.00
2019-03-23T04:24:25.517Z,828.00
2019-03-23T04:25:25.512Z,804.00
2019-03-23T04:26:25.513Z,772.00
2019-03-23T04:27:25.685Z,760.00
2019-03-23T04:28:25.472Z,772.00
2019-03-23T04:29:25.539Z,800.00
2019-03-23T04:30:25.454Z,828.00
2019-03-23T04:31:25.444Z,876.00
2019-03-23T04:32:25.428Z,924.00
2019-03-23T04:33:25.472Z,972.00
2019-03-23T04:34:25.434Z,1032.00
2019-03-23T04:35:25.400Z,1096.00
2019-03-23T04:36:25.385Z,1136.00
2019-03-23T04:37:25.389Z,1112.00
2019-03-23T04:38:25.372Z,1100.00
2019-03-23T04:39:25.404Z,1128.00
2019-03-23T04:40:25.344Z,1144.00
2019-03-23T04:41:25.389Z,1144.00
2019-03-23T04:42:25.328Z,1140.00
2019-03-23T04:43:25.320Z,1152.00
2019-03-23T04:44:25.308Z,1172.00
2019-03-23T04:45:25.443Z,1180.00
2019-03-23T04:46:25.279Z,1180.00
2019-03-23T04:47:25.269Z,1176.00
2019-03-23T04:48:25.381Z,1168.00
2019-03-23T04:49:25.252Z,1180.00
2019-03-23T04:50:25.241Z,1172.00
2019-03-23T04:51:25.282Z,1132.00
2019-03-23T04:52:25.220Z,1084.00
2019-03-23T04:53:25.207Z,1040.00
2019-03-23T04:54:25.197Z,1004.00
2019-03-23T04:55:25.189Z,984.00
2019-03-23T04:56:25.176Z,960.00
2019-03-23T04:57:25.215Z,960.00
2019-03-23T04:58:25.158Z,980.00
2019-03-23T04:59:25.145Z,1016.00
2019-03-23T05:00:25.188Z,1060.00
2019-03-23T05:01:25.120Z,1100.00
2019-03-23T05:02:25.115Z,1152.00
2019-03-23T05:03:25.317Z,1216.00
2019-03-23T05:04:25.143Z,1288.00
2019-03-23T05:05:25.082Z,1348.00
2019-03-23T05:06:25.152Z,1404.00
2019-03-23T05:07:25.060Z,1508.00
2019-03-23T05:08:32.982Z,1668.00
2019-03-23T05:09:49.905Z,1960.00
2019-03-23T05:10:49.898Z,2168.00
2019-03-23T05:11:49.885Z,2372.00
2019-03-23T05:12:49.874Z,2564.00
2019-03-23T05:13:49.861Z,2780.00
2019-03-23T05:14:49.953Z,2956.00
2019-03-23T05:15:49.841Z,3056.00
2019-03-23T05:16:49.829Z,3112.00
2019-03-23T05:17:49.821Z,3152.00
2019-03-23T05:18:49.808Z,3164.00
2019-03-23T05:19:49.799Z,3060.00
2019-03-23T05:20:49.940Z,2996.00
2019-03-23T05:21:49.779Z,3140.00
2019-03-23T05:22:49.763Z,3384.00
2019-03-23T05:23:49.757Z,3552.00
2019-03-23T05:24:49.744Z,3588.00
2019-03-23T05:25:49.735Z,3484.00
2019-03-23T05:26:49.772Z,3316.00
2019-03-23T05:27:49.713Z,3136.00
2019-03-23T05:28:49.701Z,3036.00
2019-03-23T05:29:49.693Z,3096.00
2019-03-23T05:30:49.679Z,3352.00
2019-03-23T05:31:49.673Z,3708.00
2019-03-23T05:32:49.761Z,3992.00
2019-03-23T05:33:49.644Z,4028.00
2019-03-23T05:34:49.637Z,3844.00
2019-03-23T05:35:49.624Z,3696.00
2019-03-23T05:36:49.619Z,3752.00
2019-03-23T05:37:49.600Z,4136.00
2019-03-23T05:38:49.746Z,4616.00
2019-03-23T05:39:49.583Z,5308.00
2019-03-23T05:40:49.576Z,6232.00
2019-03-23T05:41:49.565Z,7132.00
2019-03-23T05:42:49.552Z,7860.00
2019-03-23T05:43:49.538Z,8248.00
2019-03-23T05:44:49.628Z,8008.00
2019-03-23T05:45:49.514Z,7308.00
2019-03-23T05:46:49.508Z,6824.00
2019-03-23T05:47:49.501Z,6664.00
2019-03-23T05:48:49.487Z,6152.00
2019-03-23T05:49:49.477Z,5504.00
2019-03-23T05:50:49.515Z,5048.00
2019-03-23T05:51:49.455Z,4816.00
2019-03-23T05:52:49.444Z,4692.00
2019-03-23T05:53:49.432Z,4820.00
2019-03-23T05:54:49.421Z,5172.00
2019-03-23T05:55:49.406Z,5720.00
2019-03-23T05:56:49.551Z,6196.00
2019-03-23T05:57:49.390Z,6260.00
2019-03-23T05:58:49.379Z,6108.00
2019-03-23T05:59:49.368Z,5888.00
2019-03-23T06:00:49.379Z,5572.00
2019-03-23T06:01:49.345Z,5296.00
2019-03-23T06:02:49.437Z,5116.00
2019-03-23T06:03:49.325Z,5088.00
2019-03-23T06:04:49.310Z,5112.00
2019-03-23T06:05:49.305Z,5012.00
2019-03-23T06:06:49.294Z,4744.00
2019-03-23T06:07:49.282Z,4392.00
2019-03-23T06:08:54.838Z,4088.00
2019-03-23T06:10:14.076Z,3888.00
2019-03-23T06:11:14.072Z,3884.00
2019-03-23T06:12:14.055Z,3824.00
2019-03-23T06:13:14.043Z,3672.00
2019-03-23T06:14:14.232Z,3520.00
2019-03-23T06:15:14.024Z,3448.00
2019-03-23T06:16:14.013Z,3464.00
2019-03-23T06:17:13.998Z,3556.00
2019-03-23T06:18:13.981Z,3628.00
2019-03-23T06:19:13.969Z,3688.00
2019-03-23T06:20:14.012Z,3848.00
2019-03-23T06:21:13.954Z,4124.00
2019-03-23T06:22:13.941Z,4436.00
2019-03-23T06:23:13.930Z,4760.00
2019-03-23T06:24:13.924Z,5136.00
2019-03-23T06:25:13.912Z,5540.00
2019-03-23T06:26:13.996Z,5880.00
2019-03-23T06:27:13.887Z,5948.00
2019-03-23T06:28:13.874Z,5992.00
2019-03-23T06:29:13.871Z,5856.00
2019-03-23T06:30:13.861Z,5572.00
2019-03-23T06:31:13.845Z,5128.00
2019-03-23T06:32:13.987Z,4780.00
2019-03-23T06:33:13.846Z,4408.00
2019-03-23T06:34:13.812Z,4060.00
2019-03-23T06:35:13.797Z,3804.00
2019-03-23T06:36:13.787Z,3580.00
2019-03-23T06:37:13.787Z,3300.00
2019-03-23T06:38:16.198Z,3012.00
2019-03-23T06:39:13.756Z,2800.00
2019-03-23T06:40:13.753Z,2688.00
2019-03-23T06:41:13.736Z,2668.00
2019-03-23T06:42:13.725Z,2680.00
2019-03-23T06:43:13.714Z,2632.00
2019-03-23T06:44:13.806Z,2628.00
2019-03-23T06:45:13.695Z,2708.00
2019-03-23T06:46:13.684Z,2776.00
2019-03-23T06:47:13.680Z,2772.00
2019-03-23T06:48:13.663Z,2692.00
2019-03-23T06:49:13.651Z,2488.00
2019-03-23T06:50:13.793Z,2228.00
2019-03-23T06:51:13.632Z,1988.00
2019-03-23T06:52:13.619Z,1828.00
2019-03-23T06:53:13.606Z,1716.00
2019-03-23T06:54:13.599Z,1620.00
2019-03-23T06:55:13.590Z,1560.00
2019-03-23T06:56:13.621Z,1528.00
2019-03-23T06:57:13.564Z,1520.00
2019-03-23T06:58:13.553Z,1516.00
2019-03-23T06:59:13.546Z,1500.00
2019-03-23T07:00:13.537Z,1424.00
2019-03-23T07:01:13.524Z,1292.00
2019-03-23T07:02:13.561Z,1200.00
2019-03-23T07:03:13.501Z,1156.00
2019-03-23T07:04:13.488Z,1144.00
2019-03-23T07:05:13.484Z,1104.00
2019-03-23T07:06:13.465Z,1008.00
2019-03-23T07:07:13.455Z,892.00
2019-03-23T07:08:13.695Z,808.00
2019-03-23T07:09:16.418Z,740.00
2019-03-23T07:10:13.425Z,656.00
2019-03-23T07:11:13.416Z,576.00
2019-03-23T07:12:13.407Z,524.00
2019-03-23T07:13:13.398Z,480.00
2019-03-23T07:14:13.483Z,488.00
2019-03-23T07:15:19.825Z,536.00
2019-03-23T07:16:38.173Z,628.00
2019-03-23T07:17:38.160Z,716.00
2019-03-23T07:18:38.152Z,820.00
2019-03-23T07:19:38.190Z,964.00
2019-03-23T07:20:38.129Z,1140.00
2019-03-23T07:21:38.121Z,1328.00
2019-03-23T07:22:38.110Z,1492.00
2019-03-23T07:23:38.098Z,1620.00
2019-03-23T07:24:38.090Z,1676.00
2019-03-23T07:25:38.228Z,1720.00
2019-03-23T07:26:38.063Z,1720.00
2019-03-23T07:27:38.051Z,1652.00
2019-03-23T07:28:38.073Z,1584.00
2019-03-23T07:29:38.031Z,1584.00
2019-03-23T07:30:38.020Z,1592.00
2019-03-23T07:31:38.108Z,1596.00
2019-03-23T07:32:37.999Z,1680.00
2019-03-23T07:33:37.988Z,1864.00
2019-03-23T07:34:37.975Z,2160.00
2019-03-23T07:35:37.960Z,2444.00
2019-03-23T07:36:37.952Z,2532.00
2019-03-23T07:37:37.997Z,2496.00
2019-03-23T07:38:37.932Z,2512.00
2019-03-23T07:39:37.920Z,2468.00
2019-03-23T07:40:37.910Z,2288.00
2019-03-23T07:41:37.896Z,2056.00
2019-03-23T07:42:37.886Z,1856.00
2019-03-23T07:43:38.079Z,1708.00
2019-03-23T07:44:37.873Z,1660.00
2019-03-23T07:45:37.851Z,1696.00
2019-03-23T07:46:37.845Z,1748.00
2019-03-23T07:47:37.832Z,1752.00
2019-03-23T07:48:37.823Z,1744.00
2019-03-23T07:49:37.862Z,1720.00
2019-03-23T07:50:37.800Z,1728.00
2019-03-23T07:51:37.794Z,1912.00
2019-03-23T07:52:37.778Z,2204.00
2019-03-23T07:53:37.767Z,2276.00
2019-03-23T07:54:37.764Z,1976.00
2019-03-23T07:55:37.794Z,1572.00
2019-03-23T07:56:37.731Z,1440.00
2019-03-23T07:57:37.723Z,1588.00
2019-03-23T07:58:37.707Z,1632.00
2019-03-23T07:59:37.698Z,1476.00
2019-03-23T08:00:37.690Z,1388.00
2019-03-23T08:01:37.882Z,1428.00
2019-03-23T08:02:37.667Z,1448.00
2019-03-23T08:03:37.659Z,1424.00
2019-03-23T08:04:37.649Z,1420.00
2019-03-23T08:05:37.636Z,1520.00
2019-03-23T08:06:37.623Z,1804.00
2019-03-23T08:07:37.663Z,2180.00
2019-03-23T08:08:37.600Z,2444.00
2019-03-23T08:09:38.125Z,2432.00
2019-03-23T08:10:37.577Z,2252.00
2019-03-23T08:11:37.571Z,2012.00
2019-03-23T08:12:37.560Z,1768.00
2019-03-23T08:13:37.648Z,1596.00
2019-03-23T08:14:37.535Z,1520.00
2019-03-23T08:15:37.526Z,1540.00
2019-03-23T08:16:37.513Z,1640.00
2019-03-23T08:17:37.502Z,1820.00
2019-03-23T08:18:37.498Z,2140.00
2019-03-23T08:19:37.630Z,2644.00
2019-03-23T08:20:37.472Z,3296.00
2019-03-23T08:21:37.457Z,4080.00
2019-03-23T08:22:37.449Z,4868.00
2019-03-23T08:23:37.433Z,5416.00
2019-03-23T08:24:37.428Z,5536.00
2019-03-23T08:25:37.472Z,5264.00
2019-03-23T08:26:37.404Z,4844.00
2019-03-23T08:27:37.394Z,4424.00
2019-03-23T08:28:37.383Z,4036.00
2019-03-23T08:29:37.374Z,3736.00
2019-03-23T08:30:37.367Z,3416.00
2019-03-23T08:31:37.401Z,3068.00
2019-03-23T08:32:37.336Z,2780.00
2019-03-23T08:33:37.331Z,2608.00
2019-03-23T08:34:37.318Z,2492.00
2019-03-23T08:35:37.306Z,2508.00
2019-03-23T08:36:37.294Z,2672.00
2019-03-23T08:37:37.434Z,3012.00
2019-03-23T08:38:37.273Z,3396.00
2019-03-23T08:39:47.914Z,3800.00
2019-03-23T08:41:02.069Z,4400.00
2019-03-23T08:42:02.055Z,4804.00
2019-03-23T08:43:02.099Z,5204.00
2019-03-23T08:44:02.081Z,5360.00
2019-03-23T08:45:02.026Z,5168.00
2019-03-23T08:46:02.011Z,4944.00
2019-03-23T08:47:02.002Z,4780.00
2019-03-23T08:48:01.985Z,4644.00
2019-03-23T08:49:02.079Z,4624.00
2019-03-23T08:50:01.969Z,4640.00
2019-03-23T08:51:01.953Z,4828.00
2019-03-23T08:52:01.945Z,5172.00
2019-03-23T08:53:01.933Z,5484.00
2019-03-23T08:54:01.920Z,5656.00
2019-03-23T08:55:02.112Z,5620.00
2019-03-23T08:56:01.898Z,5400.00
2019-03-23T08:57:01.891Z,5208.00
2019-03-23T08:58:01.881Z,5276.00
2019-03-23T08:59:01.872Z,5448.00
2019-03-23T09:00:01.862Z,5552.00
2019-03-23T09:01:01.902Z,5480.00
2019-03-23T09:02:01.835Z,5224.00
2019-03-23T09:03:03.702Z,5136.00
2019-03-23T09:04:01.821Z,5332.00
2019-03-23T09:05:01.801Z,5228.00
2019-03-23T09:06:01.793Z,5132.00
2019-03-23T09:07:01.827Z,5176.00
2019-03-23T09:08:01.774Z,5456.00
2019-03-23T09:09:01.771Z,5700.00
2019-03-23T09:10:01.751Z,5592.00
2019-03-23T09:11:01.733Z,5352.00
2019-03-23T09:12:01.733Z,5328.00
2019-03-23T09:13:01.869Z,5444.00
2019-03-23T09:14:01.707Z,5236.00
2019-03-23T09:15:01.698Z,4868.00
2019-03-23T09:16:01.686Z,4516.00
2019-03-23T09:17:01.674Z,4028.00
2019-03-23T09:18:01.662Z,3456.00
2019-03-23T09:19:01.754Z,3328.00
2019-03-23T09:20:01.639Z,3324.00
2019-03-23T09:21:01.637Z,3108.00
2019-03-23T09:22:01.618Z,2840.00
2019-03-23T09:23:01.610Z,2644.00
2019-03-23T09:24:01.600Z,2512.00
2019-03-23T09:25:01.638Z,2516.00
2019-03-23T09:26:01.577Z,2752.00
2019-03-23T09:27:01.567Z,3100.00
2019-03-23T09:28:01.565Z,3152.00
2019-03-23T09:29:01.546Z,2880.00
2019-03-23T09:30:01.531Z,2608.00
2019-03-23T09:31:01.683Z,2432.00
2019-03-23T09:32:01.514Z,2348.00
2019-03-23T09:33:01.509Z,2308.00
2019-03-23T09:34:01.491Z,2280.00
2019-03-23T09:35:01.481Z,2280.00
2019-03-23T09:36:01.471Z,2336.00
2019-03-23T09:37:01.558Z,2452.00
2019-03-23T09:38:01.448Z,2552.00
2019-03-23T09:39:01.433Z,2580.00
2019-03-23T09:40:10.069Z,2648.00
2019-03-23T09:41:26.236Z,2628.00
2019-03-23T09:42:26.266Z,2684.00
2019-03-23T09:43:26.208Z,2872.00
2019-03-23T09:44:26.200Z,3156.00
2019-03-23T09:45:26.182Z,3604.00
2019-03-23T09:46:26.178Z,4232.00
2019-03-23T09:47:26.207Z,5052.00
2019-03-23T09:48:26.308Z,5888.00
2019-03-23T09:49:26.143Z,6476.00
2019-03-23T09:50:26.131Z,6780.00
2019-03-23T09:51:26.119Z,6628.00
2019-03-23T09:52:26.110Z,6440.00
2019-03-23T09:53:26.102Z,6368.00
2019-03-23T09:54:26.191Z,6200.00
2019-03-23T09:55:28.476Z,6084.00
2019-03-23T09:56:26.069Z,6084.00
2019-03-23T09:57:26.058Z,6004.00
2019-03-23T09:58:26.046Z,6000.00
2019-03-23T09:59:26.036Z,6040.00
2019-03-23T10:00:26.130Z,5956.00
2019-03-23T10:01:26.011Z,5568.00
2019-03-23T10:02:26.001Z,5016.00
2019-03-23T10:03:25.994Z,4608.00
2019-03-23T10:04:25.986Z,4376.00
2019-03-23T10:05:25.975Z,4200.00
2019-03-23T10:06:26.210Z,4112.00
2019-03-23T10:07:25.956Z,4172.00
2019-03-23T10:08:25.948Z,4208.00
2019-03-23T10:09:25.931Z,4028.00
2019-03-23T10:10:25.927Z,3704.00
2019-03-23T10:11:25.920Z,3304.00
2019-03-23T10:12:25.960Z,3000.00
2019-03-23T10:13:25.902Z,2908.00
2019-03-23T10:14:25.877Z,3064.00
2019-03-23T10:15:25.868Z,3476.00
2019-03-23T10:16:25.860Z,3868.00
2019-03-23T10:17:25.847Z,3844.00
2019-03-23T10:18:25.939Z,3504.00
2019-03-23T10:19:25.823Z,3160.00
2019-03-23T10:20:25.819Z,2964.00
2019-03-23T10:21:25.804Z,2860.00
2019-03-23T10:22:25.794Z,2772.00
2019-03-23T10:23:25.786Z,2544.00
2019-03-23T10:24:25.929Z,2284.00
2019-03-23T10:25:25.762Z,2064.00
2019-03-23T10:26:25.756Z,1976.00
2019-03-23T10:27:25.740Z,1984.00
2019-03-23T10:28:25.727Z,2052.00
2019-03-23T10:29:25.724Z,2180.00
2019-03-23T10:30:25.761Z,2368.00
2019-03-23T10:31:25.699Z,2632.00
2019-03-23T10:32:25.686Z,2936.00
2019-03-23T10:33:25.677Z,3292.00
2019-03-23T10:34:25.665Z,3688.00
2019-03-23T10:35:25.665Z,4236.00
2019-03-23T10:36:25.744Z,4972.00
2019-03-23T10:37:26.170Z,5504.00
2019-03-23T10:38:25.628Z,5780.00
2019-03-23T10:39:25.615Z,6108.00
2019-03-23T10:40:32.546Z,6496.00
2019-03-23T10:41:50.660Z,6900.00
2019-03-23T10:42:50.646Z,7044.00
2019-03-23T10:43:50.636Z,6980.00
2019-03-23T10:44:50.630Z,6744.00
2019-03-23T10:45:50.615Z,6460.00
2019-03-23T10:46:50.700Z,6328.00
2019-03-23T10:47:50.753Z,6164.00
2019-03-23T10:48:50.583Z,6048.00
2019-03-23T10:49:50.575Z,5900.00
2019-03-23T10:50:50.562Z,5720.00
2019-03-23T10:51:50.550Z,5520.00
2019-03-23T10:52:50.643Z,5324.00
2019-03-23T10:53:50.533Z,5252.00
2019-03-23T10:54:50.519Z,5196.00
2019-03-23T10:55:50.508Z,5064.00
2019-03-23T10:56:50.501Z,4996.00
2019-03-23T10:57:50.487Z,4940.00
2019-03-23T10:58:50.636Z,4816.00
2019-03-23T10:59:50.470Z,4656.00
2019-03-23T11:00:50.457Z,4628.00
2019-03-23T11:01:50.448Z,4652.00
2019-03-23T11:02:50.435Z,4576.00
2019-03-23T11:03:50.431Z,4432.00
2019-03-23T11:04:50.469Z,4264.00
2019-03-23T11:05:50.400Z,4144.00
2019-03-23T11:06:50.396Z,4124.00
2019-03-23T11:07:50.380Z,4068.00
2019-03-23T11:08:50.370Z,3996.00
2019-03-23T11:09:50.370Z,3940.00
2019-03-23T11:10:50.447Z,3916.00
2019-03-23T11:11:50.339Z,3876.00
2019-03-23T11:12:50.331Z,3836.00
2019-03-23T11:13:50.322Z,3808.00
2019-03-23T11:14:50.315Z,3848.00
2019-03-23T11:15:50.301Z,3924.00
2019-03-23T11:16:50.533Z,3944.00
2019-03-23T11:17:50.281Z,3860.00
2019-03-23T11:18:50.271Z,3800.00
2019-03-23T11:19:50.255Z,3740.00
2019-03-23T11:20:50.248Z,3708.00
2019-03-23T11:21:50.236Z,3708.00
2019-03-23T11:22:50.273Z,3696.00
2019-03-23T11:23:50.211Z,3740.00
2019-03-23T11:24:50.205Z,3724.00
2019-03-23T11:25:50.198Z,3672.00
2019-03-23T11:26:50.182Z,3640.00
2019-03-23T11:27:50.171Z,3576.00
2019-03-23T11:28:50.212Z,3516.00
2019-03-23T11:29:50.151Z,3520.00
2019-03-23T11:30:50.140Z,3624.00
2019-03-23T11:31:50.143Z,3768.00
2019-03-23T11:32:50.121Z,3884.00
2019-03-23T11:33:50.110Z,3932.00
2019-03-23T11:34:50.253Z,3948.00
2019-03-23T11:35:57.471Z,3944.00
2019-03-23T11:37:14.981Z,3960.00
2019-03-23T11:38:14.883Z,3912.00
2019-03-23T11:39:14.879Z,3768.00
2019-03-23T11:40:14.965Z,3608.00
2019-03-23T11:41:14.854Z,3392.00
2019-03-23T11:42:14.838Z,3224.00
2019-03-23T11:43:14.838Z,3116.00
2019-03-23T11:44:14.823Z,3068.00
2019-03-23T11:45:14.821Z,3048.00
2019-03-23T11:46:16.913Z,3040.00
2019-03-23T11:47:14.788Z,3000.00
2019-03-23T11:48:14.782Z,2924.00
2019-03-23T11:49:14.769Z,2800.00
2019-03-23T11:50:14.765Z,2700.00
2019-03-23T11:51:14.752Z,2672.00
2019-03-23T11:52:14.891Z,2632.00
2019-03-23T11:53:14.730Z,2584.00
2019-03-23T11:54:14.718Z,2592.00
2019-03-23T11:55:14.708Z,2512.00
2019-03-23T11:56:14.693Z,2476.00
2019-03-23T11:57:14.686Z,2428.00
2019-03-23T11:58:14.724Z,2332.00
2019-03-23T11:59:14.664Z,2244.00
2019-03-23T12:00:14.656Z,2140.00
2019-03-23T12:01:14.642Z,2064.00
2019-03-23T12:02:14.635Z,2092.00
2019-03-23T12:03:14.625Z,2168.00
2019-03-23T12:04:14.719Z,2336.00
2019-03-23T12:05:14.603Z,2448.00
2019-03-23T12:06:14.590Z,2508.00
2019-03-23T12:07:14.582Z,2608.00
2019-03-23T12:08:14.572Z,2672.00
2019-03-23T12:09:14.560Z,2732.00
2019-03-23T12:10:15.001Z,2716.00
2019-03-23T12:11:14.539Z,2660.00
2019-03-23T12:12:14.526Z,2544.00
2019-03-23T12:13:14.519Z,2404.00
2019-03-23T12:14:14.507Z,2284.00
2019-03-23T12:15:14.496Z,2168.00
2019-03-23T12:16:14.534Z,2088.00
2019-03-23T12:17:14.476Z,2020.00
2019-03-23T12:18:14.461Z,1972.00
2019-03-23T12:19:14.455Z,1952.00
2019-03-23T12:20:14.441Z,1940.00
2019-03-23T12:21:14.437Z,1932.00
2019-03-23T12:22:14.473Z,1960.00
2019-03-23T12:23:14.415Z,1976.00
2019-03-23T12:24:14.403Z,2004.00
2019-03-23T12:25:14.390Z,2004.00
2019-03-23T12:26:14.379Z,1972.00
2019-03-23T12:27:14.369Z,1968.00
2019-03-23T12:28:14.561Z,1968.00
2019-03-23T12:29:14.347Z,1980.00
2019-03-23T12:30:14.339Z,2012.00
2019-03-23T12:31:14.328Z,2040.00
2019-03-23T12:32:14.316Z,2004.00
2019-03-23T12:33:14.305Z,1960.00
2019-03-23T12:34:14.396Z,1888.00
2019-03-23T12:35:14.290Z,1852.00
2019-03-23T12:36:14.272Z,1784.00
2019-03-23T12:37:14.262Z,1716.00
2019-03-23T12:38:14.251Z,1668.00
2019-03-23T12:39:14.240Z,1588.00
2019-03-23T12:40:14.282Z,1524.00
2019-03-23T12:41:22.758Z,1520.00
2019-03-23T12:42:39.022Z,1516.00
2019-03-23T12:43:39.012Z,1536.00
2019-03-23T12:44:39.001Z,1564.00
2019-03-23T12:45:39.189Z,1496.00
2019-03-23T12:46:47.872Z,1404.00
2019-03-23T12:48:03.781Z,1320.00
2019-03-23T12:49:03.776Z,1252.00
2019-03-23T12:50:03.763Z,1196.00
2019-03-23T12:51:03.803Z,1128.00
2019-03-23T12:52:03.740Z,1020.00
2019-03-23T12:53:03.728Z,940.00
2019-03-23T12:54:03.722Z,892.00
2019-03-23T12:55:03.706Z,864.00
2019-03-23T12:56:03.697Z,852.00
2019-03-23T12:57:03.736Z,840.00
2019-03-23T12:58:03.684Z,824.00
2019-03-23T12:59:03.662Z,820.00
2019-03-23T13:00:03.653Z,820.00
2019-03-23T13:01:03.644Z,820.00
2019-03-23T13:02:03.632Z,820.00
2019-03-23T13:03:03.872Z,812.00
2019-03-23T13:04:03.607Z,824.00
2019-03-23T13:05:04.188Z,820.00
2019-03-23T13:06:03.587Z,824.00
2019-03-23T13:07:03.574Z,824.00
2019-03-23T13:08:03.569Z,816.00
2019-03-23T13:09:03.714Z,804.00
2019-03-23T13:10:03.548Z,784.00
2019-03-23T13:11:03.538Z,760.00
2019-03-23T13:12:03.523Z,736.00
2019-03-23T13:13:03.516Z,716.00
2019-03-23T13:14:03.503Z,708.00
2019-03-23T13:15:03.542Z,708.00
2019-03-23T13:16:03.482Z,704.00
2019-03-23T13:17:03.467Z,684.00
2019-03-23T13:18:03.475Z,660.00
2019-03-23T13:19:03.455Z,624.00
2019-03-23T13:20:03.471Z,596.00
2019-03-23T13:21:03.580Z,572.00
2019-03-23T13:22:03.417Z,540.00
2019-03-23T13:23:03.401Z,508.00
2019-03-23T13:24:03.396Z,472.00
2019-03-23T13:25:03.385Z,448.00
2019-03-23T13:26:03.375Z,432.00
2019-03-23T13:27:03.462Z,416.00
2019-03-23T13:28:03.355Z,392.00
2019-03-23T13:29:03.339Z,364.00
2019-03-23T13:30:03.329Z,332.00